createdAt,value
2023-01-31T00:01:38.681Z,91.80
2023-01-31T00:04:07.674Z,91.60
2023-01-31T00:06:40.301Z,91.76
2023-01-31T00:09:09.121Z,91.68
2023-01-31T00:11:36.273Z,91.67
2023-01-31T00:14:04.550Z,91.56
2023-01-31T00:16:31.678Z,91.62
2023-01-31T00:18:58.361Z,91.46
2023-01-31T00:21:27.561Z,91.50
2023-01-31T00:23:55.185Z,91.82
2023-01-31T00:26:25.827Z,91.63
2023-01-31T00:28:54.336Z,91.78
2023-01-31T00:31:22.928Z,91.99
2023-01-31T00:33:51.690Z,91.97
2023-01-31T00:36:21.772Z,91.85
2023-01-31T00:38:49.887Z,92.16
2023-01-31T00:41:18.713Z,91.87
2023-01-31T00:43:45.467Z,92.40
2023-01-31T00:46:12.521Z,91.84
2023-01-31T00:48:39.178Z,91.72
2023-01-31T00:51:06.378Z,91.75
2023-01-31T00:53:33.318Z,91.69
2023-01-31T00:56:11.735Z,91.64
2023-01-31T00:58:39.682Z,91.48
2023-01-31T01:01:11.839Z,91.58
2023-01-31T01:03:39.187Z,91.77
2023-01-31T01:06:07.062Z,91.87
2023-01-31T01:08:34.692Z,91.74
2023-01-31T01:11:10.896Z,91.69
2023-01-31T01:13:38.193Z,91.63
2023-01-31T01:16:19.246Z,91.84
2023-01-31T01:18:48.155Z,91.98
2023-01-31T01:21:18.032Z,91.70
2023-01-31T01:23:46.390Z,91.86
2023-01-31T01:26:22.756Z,91.97
2023-01-31T01:28:49.775Z,91.73
2023-01-31T01:31:17.847Z,91.89
2023-01-31T01:33:46.009Z,91.81
2023-01-31T01:36:16.094Z,91.61
2023-01-31T01:38:43.673Z,92.05
2023-01-31T01:41:11.654Z,91.52
2023-01-31T01:43:58.655Z,92.27
2023-01-31T01:46:31.930Z,92.03
2023-01-31T01:49:00.367Z,92.48
2023-01-31T01:51:27.916Z,92.09
2023-01-31T01:53:56.169Z,92.02
2023-01-31T01:56:26.882Z,91.93
2023-01-31T01:59:05.597Z,92.00
2023-01-31T02:01:36.187Z,92.00
2023-01-31T02:04:11.922Z,92.06
2023-01-31T02:06:38.651Z,91.88
2023-01-31T02:09:06.834Z,92.14
2023-01-31T02:11:33.817Z,92.28
2023-01-31T02:14:04.047Z,92.21
2023-01-31T02:16:33.734Z,92.26
2023-01-31T02:19:00.963Z,92.48
2023-01-31T02:21:50.731Z,92.19
2023-01-31T02:24:17.374Z,92.25
2023-01-31T02:26:49.767Z,92.32
2023-01-31T02:29:47.387Z,92.26
2023-01-31T02:32:44.974Z,92.06
2023-01-31T02:35:29.104Z,91.99
2023-01-31T02:37:58.675Z,91.66
2023-01-31T02:40:40.207Z,91.83
2023-01-31T02:43:13.272Z,91.88
2023-01-31T02:46:05.853Z,92.04
2023-01-31T02:48:43.503Z,92.13
2023-01-31T02:51:15.994Z,91.84
2023-01-31T02:53:51.591Z,91.87
2023-01-31T02:56:31.784Z,91.94
2023-01-31T02:59:02.749Z,91.90
2023-01-31T03:01:33.196Z,91.68
2023-01-31T03:04:03.540Z,91.57
2023-01-31T03:06:33.405Z,91.74
2023-01-31T03:09:25.018Z,91.79
2023-01-31T03:12:06.718Z,91.75
2023-01-31T03:14:46.129Z,91.77
2023-01-31T03:17:34.533Z,91.58
2023-01-31T03:20:02.631Z,91.66
2023-01-31T03:22:44.577Z,91.75
2023-01-31T03:25:14.135Z,91.81
2023-01-31T03:27:46.334Z,91.56
2023-01-31T03:30:19.690Z,91.60
2023-01-31T03:32:53.549Z,92.06
2023-01-31T03:35:23.973Z,92.39
2023-01-31T03:37:57.010Z,91.94
2023-01-31T03:41:02.243Z,91.84
2023-01-31T03:43:58.808Z,91.91
2023-01-31T03:46:31.301Z,91.45
2023-01-31T03:48:59.757Z,91.72
2023-01-31T03:51:29.429Z,91.50
2023-01-31T03:53:59.789Z,91.67
2023-01-31T03:56:41.903Z,91.38
2023-01-31T03:59:15.409Z,91.85
2023-01-31T04:01:45.696Z,91.59
2023-01-31T04:04:17.246Z,91.41
2023-01-31T04:06:44.083Z,91.74
2023-01-31T04:09:11.090Z,91.39
2023-01-31T04:11:40.061Z,91.34
2023-01-31T04:14:07.897Z,91.10
2023-01-31T04:16:34.572Z,91.23
2023-01-31T04:19:01.472Z,91.11
2023-01-31T04:21:28.181Z,91.17
2023-01-31T04:23:54.885Z,91.27
2023-01-31T04:26:21.591Z,91.36
2023-01-31T04:28:48.287Z,91.32
2023-01-31T04:31:15.021Z,91.31
2023-01-31T04:33:41.730Z,90.79
2023-01-31T04:36:09.067Z,91.15
2023-01-31T04:38:35.895Z,91.03
2023-01-31T04:41:02.554Z,90.82
2023-01-31T04:43:29.345Z,90.65
2023-01-31T04:45:56.028Z,91.07
2023-01-31T04:48:22.687Z,91.05
2023-01-31T04:50:49.390Z,91.13
2023-01-31T04:53:16.109Z,90.85
2023-01-31T04:55:42.832Z,90.97
2023-01-31T04:58:09.952Z,91.18
2023-01-31T05:00:36.791Z,91.04
2023-01-31T05:03:03.688Z,91.50
2023-01-31T05:05:30.830Z,91.25
2023-01-31T05:07:57.516Z,91.50
2023-01-31T05:10:24.207Z,91.32
2023-01-31T05:12:51.496Z,91.12
2023-01-31T05:15:18.643Z,90.98
2023-01-31T05:17:45.626Z,91.16
2023-01-31T05:20:12.373Z,91.37
2023-01-31T05:22:39.160Z,91.16
2023-01-31T05:25:06.054Z,90.92
2023-01-31T05:27:32.749Z,90.95
2023-01-31T05:30:00.687Z,90.90
2023-01-31T05:32:27.619Z,91.03
2023-01-31T05:34:54.356Z,91.17
2023-01-31T05:37:20.998Z,91.17
2023-01-31T05:39:47.710Z,90.97
2023-01-31T05:42:14.459Z,91.00
2023-01-31T05:44:41.130Z,90.98
2023-01-31T05:47:07.857Z,90.88
2023-01-31T05:49:34.638Z,90.80
2023-01-31T05:52:02.096Z,91.02
2023-01-31T05:54:29.126Z,90.86
2023-01-31T05:56:55.772Z,90.64
2023-01-31T05:59:22.423Z,90.96
2023-01-31T06:01:49.161Z,90.60
2023-01-31T06:04:15.968Z,90.87
2023-01-31T06:06:42.724Z,90.77
2023-01-31T06:09:09.566Z,90.94
2023-01-31T06:11:36.323Z,90.98
2023-01-31T06:14:03.065Z,90.92
2023-01-31T06:16:29.817Z,90.80
2023-01-31T06:18:57.096Z,90.86
2023-01-31T06:21:24.066Z,90.66
2023-01-31T06:23:50.764Z,90.83
2023-01-31T06:26:17.503Z,90.76
2023-01-31T06:28:46.203Z,90.86
2023-01-31T06:31:13.647Z,90.85
2023-01-31T06:33:46.924Z,90.70
2023-01-31T06:36:18.042Z,90.72
2023-01-31T06:38:48.933Z,90.60
2023-01-31T06:41:16.201Z,90.71
2023-01-31T06:43:42.857Z,90.51
2023-01-31T06:46:09.503Z,90.56
2023-01-31T06:48:36.239Z,90.71
2023-01-31T06:51:02.976Z,90.44
2023-01-31T06:53:29.671Z,90.28
2023-01-31T06:55:56.662Z,90.48
2023-01-31T06:58:23.360Z,90.75
2023-01-31T07:00:50.045Z,90.52
2023-01-31T07:03:16.807Z,90.34
2023-01-31T07:05:45.338Z,90.31
2023-01-31T07:08:12.099Z,90.46
2023-01-31T07:10:38.778Z,90.57
2023-01-31T07:13:05.449Z,90.20
2023-01-31T07:15:32.570Z,90.41
2023-01-31T07:17:59.504Z,90.57
2023-01-31T07:20:26.736Z,90.10
2023-01-31T07:22:57.433Z,89.96
2023-01-31T07:25:25.166Z,90.26
2023-01-31T07:27:51.808Z,90.06
2023-01-31T07:30:19.065Z,90.49
2023-01-31T07:32:45.822Z,90.07
2023-01-31T07:35:12.643Z,90.55
2023-01-31T07:37:40.630Z,90.24
2023-01-31T07:40:08.029Z,90.30
2023-01-31T07:42:34.670Z,90.21
2023-01-31T07:45:13.262Z,90.06
2023-01-31T07:47:47.537Z,89.95
2023-01-31T07:50:14.236Z,89.92
2023-01-31T07:52:40.919Z,89.99
2023-01-31T07:55:07.914Z,90.03
2023-01-31T07:57:34.677Z,89.89
2023-01-31T08:00:01.416Z,89.82
2023-01-31T08:02:56.518Z,89.94
2023-01-31T08:05:23.503Z,89.85
2023-01-31T08:08:10.218Z,89.98
2023-01-31T08:10:37.410Z,89.67
2023-01-31T08:13:04.338Z,89.76
2023-01-31T08:15:31.020Z,89.86
2023-01-31T08:17:57.666Z,89.66
2023-01-31T08:20:24.362Z,90.16
2023-01-31T08:22:51.056Z,89.71
2023-01-31T08:25:19.631Z,89.65
2023-01-31T08:27:47.372Z,90.14
2023-01-31T08:30:14.238Z,90.00
2023-01-31T08:32:40.916Z,89.99
2023-01-31T08:35:07.739Z,90.25
2023-01-31T08:37:34.919Z,90.02
2023-01-31T08:40:01.670Z,90.25
2023-01-31T08:42:28.353Z,90.00
2023-01-31T08:44:55.063Z,90.12
2023-01-31T08:47:21.904Z,89.99
2023-01-31T08:49:48.589Z,90.11
2023-01-31T08:52:15.260Z,89.96
2023-01-31T08:54:41.950Z,90.54
2023-01-31T08:57:08.646Z,89.92
2023-01-31T08:59:35.400Z,90.12
2023-01-31T09:02:02.348Z,90.07
2023-01-31T09:04:29.051Z,90.00
2023-01-31T09:06:55.790Z,89.93
2023-01-31T09:09:22.438Z,89.89
2023-01-31T09:11:49.067Z,89.59
2023-01-31T09:14:15.810Z,89.54
2023-01-31T09:16:43.552Z,89.70
2023-01-31T09:19:10.450Z,89.91
2023-01-31T09:21:37.216Z,89.80
2023-01-31T09:24:04.023Z,90.20
2023-01-31T09:26:31.994Z,89.92
2023-01-31T09:28:58.963Z,89.42
2023-01-31T09:31:25.684Z,89.54
2023-01-31T09:33:52.407Z,89.78
2023-01-31T09:36:20.898Z,89.42
2023-01-31T09:38:47.825Z,89.55
2023-01-31T09:41:56.371Z,89.83
2023-01-31T09:44:29.921Z,89.89
2023-01-31T09:47:14.680Z,90.21
2023-01-31T09:49:47.164Z,89.37
2023-01-31T09:52:13.920Z,89.67
2023-01-31T09:54:41.077Z,89.53
2023-01-31T09:57:29.461Z,89.37
2023-01-31T10:00:09.665Z,89.15
2023-01-31T10:02:42.127Z,88.75
2023-01-31T10:05:08.688Z,88.87
2023-01-31T10:07:42.909Z,88.65
2023-01-31T10:10:18.703Z,88.39
2023-01-31T10:12:51.907Z,88.51
2023-01-31T10:15:36.954Z,88.21
2023-01-31T10:18:15.984Z,88.41
2023-01-31T10:20:54.633Z,88.41
2023-01-31T10:23:26.288Z,88.32
2023-01-31T10:25:58.028Z,88.64
2023-01-31T10:28:30.400Z,88.75
2023-01-31T10:31:02.649Z,88.22
2023-01-31T10:33:39.044Z,88.11
2023-01-31T10:36:11.694Z,88.15
2023-01-31T10:38:45.685Z,88.23
2023-01-31T10:41:15.714Z,88.24
2023-01-31T10:43:47.621Z,88.17
2023-01-31T10:46:14.986Z,88.10
2023-01-31T10:48:43.960Z,88.10
2023-01-31T10:51:33.885Z,87.98
2023-01-31T10:54:19.175Z,87.99
2023-01-31T10:56:48.940Z,87.93
2023-01-31T10:59:30.821Z,87.92
2023-01-31T11:01:58.623Z,87.81
2023-01-31T11:04:31.208Z,87.88
2023-01-31T11:06:59.400Z,87.85
2023-01-31T11:09:29.276Z,88.03
2023-01-31T11:11:58.873Z,88.03
2023-01-31T11:14:25.792Z,87.73
2023-01-31T11:17:20.852Z,87.72
2023-01-31T11:19:52.854Z,87.49
2023-01-31T11:22:31.532Z,87.67
2023-01-31T11:24:59.765Z,87.69
2023-01-31T11:27:32.835Z,87.73
2023-01-31T11:30:00.469Z,87.46
2023-01-31T11:32:32.597Z,87.32
2023-01-31T11:35:04.197Z,87.69
2023-01-31T11:37:34.405Z,87.13
2023-01-31T11:40:05.593Z,87.43
2023-01-31T11:42:32.325Z,87.21
2023-01-31T11:45:01.716Z,87.44
2023-01-31T11:47:42.566Z,87.53
2023-01-31T11:50:20.213Z,87.59
2023-01-31T11:52:47.119Z,87.61
2023-01-31T11:55:17.177Z,87.27
2023-01-31T11:57:44.278Z,87.71
2023-01-31T12:00:23.449Z,87.54
2023-01-31T12:03:07.500Z,87.40
2023-01-31T12:05:42.301Z,87.29
2023-01-31T12:08:29.024Z,86.97
2023-01-31T12:10:56.122Z,87.42
2023-01-31T12:13:23.768Z,87.20
2023-01-31T12:15:57.879Z,87.09
2023-01-31T12:18:44.465Z,86.99
2023-01-31T12:21:15.533Z,86.85
2023-01-31T12:24:03.884Z,86.64
2023-01-31T12:26:50.183Z,86.41
2023-01-31T12:29:32.022Z,86.64
2023-01-31T12:32:19.609Z,86.54
2023-01-31T12:35:01.302Z,86.63
2023-01-31T12:37:39.554Z,86.74
2023-01-31T12:40:29.554Z,86.74
2023-01-31T12:43:00.118Z,86.68
2023-01-31T12:45:26.875Z,86.71
2023-01-31T12:48:14.628Z,86.27
2023-01-31T12:51:05.401Z,86.22
2023-01-31T12:53:39.195Z,86.33
2023-01-31T12:56:11.789Z,86.11
2023-01-31T12:58:48.495Z,85.64
2023-01-31T13:01:27.988Z,85.68
2023-01-31T13:04:19.379Z,85.47
2023-01-31T13:06:49.836Z,85.90
2023-01-31T13:09:21.984Z,85.38
2023-01-31T13:11:55.238Z,85.29
2023-01-31T13:14:22.409Z,84.71
2023-01-31T13:16:53.605Z,85.05
2023-01-31T13:19:43.659Z,84.49
2023-01-31T13:22:17.882Z,84.97
2023-01-31T13:24:48.467Z,85.06
2023-01-31T13:27:23.281Z,84.74
2023-01-31T13:30:00.626Z,84.56
2023-01-31T13:32:38.924Z,84.74
2023-01-31T13:35:16.822Z,84.38
2023-01-31T13:37:45.216Z,84.54
2023-01-31T13:40:21.116Z,83.32
2023-01-31T13:42:49.339Z,84.08
2023-01-31T13:45:34.313Z,83.06
2023-01-31T13:48:36.210Z,83.54
2023-01-31T13:51:17.796Z,83.76
2023-01-31T13:53:50.436Z,83.53
2023-01-31T13:56:27.057Z,83.55
2023-01-31T13:58:54.975Z,83.59
2023-01-31T14:01:27.351Z,83.39
2023-01-31T14:04:12.364Z,83.26
2023-01-31T14:06:58.584Z,83.31
2023-01-31T14:09:31.145Z,83.40
2023-01-31T14:11:59.814Z,83.40
2023-01-31T14:14:39.171Z,83.16
2023-01-31T14:17:28.515Z,83.13
2023-01-31T14:19:55.427Z,83.04
2023-01-31T14:22:35.106Z,82.33
2023-01-31T14:25:04.718Z,83.09
2023-01-31T14:27:36.047Z,83.00
2023-01-31T14:30:05.950Z,82.81
2023-01-31T14:32:35.740Z,83.17
2023-01-31T14:35:14.335Z,83.05
2023-01-31T14:37:59.484Z,83.46
2023-01-31T14:40:30.093Z,83.19
2023-01-31T14:43:06.249Z,82.83
2023-01-31T14:45:36.405Z,83.02
2023-01-31T14:48:26.312Z,82.59
2023-01-31T14:51:16.203Z,83.13
2023-01-31T14:54:10.148Z,83.05
2023-01-31T14:56:51.347Z,83.00
2023-01-31T14:59:26.005Z,83.51
2023-01-31T15:01:52.881Z,83.73
2023-01-31T15:04:22.152Z,83.84
2023-01-31T15:06:50.184Z,83.86
2023-01-31T15:09:24.340Z,83.88
2023-01-31T15:11:54.728Z,83.82
2023-01-31T15:14:36.766Z,84.03
2023-01-31T15:17:27.329Z,83.91
2023-01-31T15:20:12.349Z,83.90
2023-01-31T15:22:41.354Z,84.15
2023-01-31T15:25:29.860Z,83.92
2023-01-31T15:27:57.235Z,84.35
2023-01-31T15:30:24.573Z,84.14
2023-01-31T15:33:15.591Z,84.41
2023-01-31T15:35:55.960Z,84.63
2023-01-31T15:38:35.779Z,85.23
2023-01-31T15:41:18.880Z,85.14
2023-01-31T15:43:46.550Z,85.51
2023-01-31T15:46:19.214Z,85.85
2023-01-31T15:48:45.859Z,86.44
2023-01-31T15:51:13.854Z,86.10
2023-01-31T15:53:41.310Z,86.57
2023-01-31T15:56:16.378Z,86.90
2023-01-31T15:58:47.052Z,86.75
2023-01-31T16:01:16.648Z,86.83
2023-01-31T16:03:49.802Z,87.36
2023-01-31T16:06:34.749Z,87.66
2023-01-31T16:09:04.117Z,88.11
2023-01-31T16:11:33.901Z,87.82
2023-01-31T16:14:05.630Z,87.86
2023-01-31T16:16:34.711Z,88.19
2023-01-31T16:19:02.118Z,88.09
2023-01-31T16:21:38.750Z,88.44
2023-01-31T16:24:11.236Z,88.24
2023-01-31T16:26:39.855Z,89.08
2023-01-31T16:29:09.567Z,89.00
2023-01-31T16:31:47.119Z,89.22
2023-01-31T16:34:32.405Z,91.30
2023-01-31T16:37:04.443Z,89.69
2023-01-31T16:39:40.663Z,90.54
2023-01-31T16:42:23.654Z,90.04
2023-01-31T16:44:51.093Z,90.12
2023-01-31T16:47:42.055Z,90.66
2023-01-31T16:50:17.598Z,91.18
2023-01-31T16:52:45.858Z,93.10
2023-01-31T16:55:14.586Z,91.09
2023-01-31T16:57:41.438Z,90.98
2023-01-31T17:00:28.081Z,91.64
2023-01-31T17:02:56.539Z,90.90
2023-01-31T17:05:35.317Z,91.37
2023-01-31T17:08:02.822Z,91.50
2023-01-31T17:10:31.607Z,91.45
2023-01-31T17:13:01.549Z,92.10
2023-01-31T17:15:28.495Z,91.00
2023-01-31T17:17:56.128Z,92.35
2023-01-31T17:20:22.779Z,91.83
2023-01-31T17:23:00.788Z,91.84
2023-01-31T17:25:32.809Z,91.77
2023-01-31T17:27:59.604Z,91.17
2023-01-31T17:30:28.910Z,91.35
2023-01-31T17:32:57.119Z,90.74
2023-01-31T17:35:36.492Z,93.61
2023-01-31T17:38:03.926Z,91.41
2023-01-31T17:40:30.647Z,91.23
2023-01-31T17:42:59.428Z,91.40
2023-01-31T17:45:26.411Z,91.62
2023-01-31T17:47:53.060Z,91.93
2023-01-31T17:50:22.038Z,91.81
2023-01-31T17:52:49.224Z,90.93
2023-01-31T17:55:18.205Z,91.14
2023-01-31T17:57:44.937Z,91.14
2023-01-31T18:00:13.845Z,90.87
2023-01-31T18:02:43.545Z,91.17
2023-01-31T18:05:11.510Z,91.84
2023-01-31T18:07:38.582Z,91.53
2023-01-31T18:10:06.518Z,91.13
2023-01-31T18:12:35.504Z,91.13
2023-01-31T18:15:03.363Z,92.47
2023-01-31T18:17:30.212Z,91.90
2023-01-31T18:19:56.958Z,92.65
2023-01-31T18:22:23.883Z,93.23
2023-01-31T18:24:50.708Z,92.02
2023-01-31T18:27:17.401Z,91.96
2023-01-31T18:29:44.364Z,91.76
2023-01-31T18:32:13.182Z,91.99
2023-01-31T18:34:40.013Z,92.17
2023-01-31T18:37:10.318Z,92.46
2023-01-31T18:39:37.099Z,92.03
2023-01-31T18:42:03.861Z,92.40
2023-01-31T18:44:31.171Z,92.58
2023-01-31T18:46:57.998Z,92.17
2023-01-31T18:49:24.845Z,92.30
2023-01-31T18:51:51.722Z,92.61
2023-01-31T18:54:18.692Z,92.32
2023-01-31T18:56:45.354Z,92.43
2023-01-31T18:59:12.073Z,93.16
2023-01-31T19:01:42.209Z,93.08
2023-01-31T19:04:09.982Z,92.71
2023-01-31T19:06:37.815Z,92.70
2023-01-31T19:09:06.573Z,92.97
2023-01-31T19:11:33.415Z,93.04
2023-01-31T19:14:04.685Z,93.31
2023-01-31T19:16:31.428Z,92.89
2023-01-31T19:18:58.206Z,93.15
2023-01-31T19:21:27.367Z,93.36
2023-01-31T19:23:57.735Z,92.94
2023-01-31T19:26:24.637Z,92.98
2023-01-31T19:28:51.557Z,93.11
2023-01-31T19:31:23.371Z,93.14
2023-01-31T19:33:52.057Z,93.16
2023-01-31T19:36:22.052Z,93.31
2023-01-31T19:38:48.970Z,93.30
2023-01-31T19:41:18.884Z,93.60
2023-01-31T19:43:46.061Z,93.94
2023-01-31T19:46:12.896Z,93.54
2023-01-31T19:48:39.843Z,93.34
2023-01-31T19:51:11.670Z,93.49
2023-01-31T19:53:39.039Z,93.17
2023-01-31T19:56:06.643Z,93.56
2023-01-31T19:58:33.388Z,93.36
2023-01-31T20:01:05.803Z,93.00
2023-01-31T20:03:32.758Z,93.22
2023-01-31T20:06:04.920Z,93.14
2023-01-31T20:08:32.016Z,93.42
2023-01-31T20:10:58.736Z,93.33
2023-01-31T20:13:25.659Z,94.24
2023-01-31T20:15:59.412Z,93.49
2023-01-31T20:18:26.556Z,94.02
2023-01-31T20:20:53.697Z,93.98
2023-01-31T20:23:21.003Z,94.09
2023-01-31T20:25:49.821Z,93.62
2023-01-31T20:28:16.939Z,93.46
2023-01-31T20:30:43.686Z,93.62
2023-01-31T20:33:10.478Z,93.72
2023-01-31T20:35:38.617Z,94.30
2023-01-31T20:38:05.426Z,94.04
2023-01-31T20:40:32.188Z,93.92
2023-01-31T20:42:58.859Z,93.99
2023-01-31T20:45:28.444Z,93.98
2023-01-31T20:47:55.875Z,95.22
2023-01-31T20:50:23.931Z,94.99
2023-01-31T20:52:54.335Z,94.62
2023-01-31T20:55:21.932Z,95.62
2023-01-31T20:57:50.147Z,95.31
2023-01-31T21:00:21.779Z,94.93
2023-01-31T21:02:49.243Z,94.61
2023-01-31T21:05:17.210Z,94.23
2023-01-31T21:07:44.656Z,95.87
2023-01-31T21:10:12.464Z,94.79
2023-01-31T21:12:39.275Z,95.05
2023-01-31T21:15:06.485Z,95.71
2023-01-31T21:17:40.024Z,95.83
2023-01-31T21:20:08.136Z,94.67
2023-01-31T21:22:35.187Z,95.02
2023-01-31T21:25:02.144Z,94.40
2023-01-31T21:27:29.337Z,94.39
2023-01-31T21:29:56.147Z,94.99
2023-01-31T21:32:22.941Z,94.47
2023-01-31T21:34:49.687Z,94.47
2023-01-31T21:37:16.442Z,94.51
2023-01-31T21:39:43.182Z,94.20
2023-01-31T21:42:15.661Z,94.40
2023-01-31T21:44:43.112Z,94.60
2023-01-31T21:47:10.013Z,94.31
2023-01-31T21:49:36.915Z,94.81
2023-01-31T21:52:04.003Z,94.29
2023-01-31T21:54:30.813Z,94.45
2023-01-31T21:56:57.547Z,94.33
2023-01-31T21:59:24.362Z,94.55
2023-01-31T22:01:51.779Z,94.15
2023-01-31T22:04:20.882Z,94.28
2023-01-31T22:06:50.838Z,94.57
2023-01-31T22:09:18.141Z,94.48
2023-01-31T22:11:47.414Z,94.40
2023-01-31T22:14:15.421Z,94.50
2023-01-31T22:16:42.335Z,94.28
2023-01-31T22:19:11.576Z,94.42
2023-01-31T22:21:39.150Z,94.46
2023-01-31T22:24:07.493Z,94.67
2023-01-31T22:26:37.113Z,94.77
2023-01-31T22:29:06.337Z,94.91
2023-01-31T22:31:34.384Z,94.73
2023-01-31T22:34:01.939Z,94.46
2023-01-31T22:36:28.638Z,94.84
2023-01-31T22:38:55.417Z,94.69
2023-01-31T22:41:22.568Z,94.41
2023-01-31T22:43:51.104Z,94.38
2023-01-31T22:46:20.937Z,95.87
2023-01-31T22:48:49.369Z,95.35
2023-01-31T22:51:21.292Z,94.58
2023-01-31T22:53:48.572Z,95.17
2023-01-31T22:56:20.653Z,94.58
2023-01-31T22:58:48.347Z,94.36
2023-01-31T23:01:18.070Z,94.16
2023-01-31T23:03:44.999Z,94.75
2023-01-31T23:06:12.491Z,95.18
2023-01-31T23:08:41.777Z,94.53
2023-01-31T23:11:13.384Z,95.05
2023-01-31T23:13:40.734Z,95.06
2023-01-31T23:16:08.612Z,94.75
2023-01-31T23:18:35.896Z,94.84
2023-01-31T23:21:11.269Z,94.76
2023-01-31T23:23:38.048Z,95.04
2023-01-31T23:26:05.635Z,95.19
2023-01-31T23:28:32.411Z,95.20
2023-01-31T23:30:59.519Z,95.32
2023-01-31T23:33:26.369Z,94.78
2023-01-31T23:35:53.093Z,95.27
2023-01-31T23:38:19.783Z,95.23
2023-01-31T23:40:53.765Z,94.74
2023-01-31T23:43:21.493Z,94.31
2023-01-31T23:45:48.625Z,95.03
2023-01-31T23:48:15.623Z,94.57
2023-01-31T23:50:42.431Z,94.87
2023-01-31T23:53:09.306Z,95.02
2023-01-31T23:55:35.991Z,95.34
2023-01-31T23:58:02.775Z,94.76
